Adams Corners, New York
Current Conditions -  °F | °C
As of 12:45 AM on Saturday 25 Oct 2014 (Local Time) from KSWF Reporting Station
Clear Clear  
Wind Chill: 39°   Ceiling: Unl
Heat Index: 43°   Visibility: 10mi
Dew Point: 41°   Wind: 6mph
Humidity: 93%   Direction: 310°NW
Pressure: 29.86"   Gusts: NA
Location:  41.3969°N, 73.8382°W
Report Text: KSWF 250445Z 31005KT 10SM SKC 06/05 A2986
Loading
Personal Weather Stations






























Interactive Weather Map New forecast layout! Learn more

10-Day Weather Forecast

Advertisements
Track Severe Weather on mobile